Sorrento, Canada
Current Conditions -  °F | °C
As of 9:00 AM on Saturday 25 Oct 2014 (Local Time) from CYKA Reporting Station
Broken Clouds Broken Clouds  
Wind Chill: 41°   Ceiling: 5000
Heat Index: 46°   Visibility: 40mi
Dew Point: 37°   Wind: 12mph
Humidity: 71%   Direction: 140°SE
Pressure: 29.63"   Gusts: NA
Location:  50.88°N, 119.41°W
Report Text: CYKA 251600Z 14010KT 40SM BKN050 BKN240 08/03 A2963 RMK SC6CI1 SLP043
Loading
Personal Weather Stations






























Interactive Weather Map
Tropical Storm Tracking
New forecast layout! Learn more

10-Day Weather Forecast

Advertisements
Track Severe Weather on mobile